Darstellungsparameter: Aktuell verwendete Einstellungen:
Skalierung der Graphiken ... ?
xyx+y,   Skalierungsfaktor:      Skalierung: Modus: x, Faktor: 1
Darstellungszeitraum ... ?
Vom - - bis: - -   Zeitraum: 02.10.2010 - 02.10.2010
Min/Max/Avg-Anzeige ... ?
Zeige MMA aktuell
Zeige MMA Monat
Zeige MMA alles
Zeige --A aktuell
Zeige --A Monat
Zeige --A alles
Keine MMA-Anzeige
MMA:
Minimum Maximum Average (ber die Originaldaten)
MMA-Basis: 23.02.2003 - 03.10.2020
Quicknavigation für Darstellung... ?
Tage:      1T, 2T, 3T, 5T -1T -2T -3T -5T +1T +2T +3T +5T
Wochen: 1W, 2W, 3W -1W -2W -3W +1W +2W +3W
Monate: 1M, 3M, 6M -1M -3M -6M +1M +3M +6M
Jahre:    1J, 3J, 5J, 10J -1J -3J -5J -10J +1J +3J +5J +10J
Nutze für die Darstellung ... ?
Originaldaten oder Mittelwerte auf ...
Stundenbasis Tagesbasis Wochenbasis
Monatsbasis Jahresbasis      Datenbasis: Original-Daten
Darstellen als:
Statistik (Auto) Statistik J:M      Darstellung:
Zur Graphik,    zurück zur Übersicht aller Sensoren.
 
Tabellarische Datenbersicht: ?
 
Sensor: Nr:Datum:Temp:Abs-Feuchte:Windchill:Wind:
Aussen-T/F 1 02-10-2010 00:04:04 11.2 C 8.82 g/m*3 11.2 C 0 km/h
2 02-10-2010 00:16:04 11.2 C 8.72 g/m*3 11.2 C 0 km/h
3 02-10-2010 00:28:04 11.2 C 8.72 g/m*3 11.2 C 0 km/h
4 02-10-2010 00:40:04 11.1 C 8.66 g/m*3 11.1 C 0 km/h
5 02-10-2010 00:52:04 10.9 C 8.65 g/m*3 10.9 C 0 km/h
6 02-10-2010 01:04:04 10.9 C 8.65 g/m*3 10.9 C 0 km/h
7 02-10-2010 01:16:04 11 C 8.71 g/m*3 11 C 0 km/h
8 02-10-2010 01:28:05 10.9 C 8.75 g/m*3 10.9 C 0 km/h
9 02-10-2010 01:40:05 11 C 8.81 g/m*3 11 C 0 km/h
10 02-10-2010 01:52:05 10.8 C 8.8 g/m*3 10.8 C 0 km/h
11 02-10-2010 02:04:05 10.8 C 8.8 g/m*3 10.8 C 0 km/h
12 02-10-2010 02:16:05 10.8 C 8.9 g/m*3 10.8 C 0 km/h
13 02-10-2010 02:28:05 11 C 9.01 g/m*3 11 C 0 km/h
14 02-10-2010 02:40:05 11.1 C 9.07 g/m*3 11.1 C 0 km/h
15 02-10-2010 02:52:05 11.1 C 9.07 g/m*3 11.1 C 0 km/h
16 02-10-2010 03:04:05 11.1 C 9.07 g/m*3 11.1 C 0 km/h
17 02-10-2010 03:16:05 11.1 C 9.17 g/m*3 11.1 C 0 km/h
18 02-10-2010 03:28:05 11.1 C 9.17 g/m*3 11.1 C 0 km/h
19 02-10-2010 03:40:05 11.1 C 9.17 g/m*3 11.1 C 0 km/h
20 02-10-2010 03:52:05 11.1 C 9.17 g/m*3 11.1 C 0 km/h
21 02-10-2010 04:04:05 11.1 C 9.27 g/m*3 11.1 C 0 km/h
22 02-10-2010 04:16:05 11.1 C 9.27 g/m*3 11.1 C 0 km/h
23 02-10-2010 04:28:05 11.1 C 9.27 g/m*3 11.1 C 0 km/h
24 02-10-2010 04:40:05 11.1 C 9.27 g/m*3 11.1 C 0 km/h
25 02-10-2010 04:52:05 11 C 9.21 g/m*3 11 C 0 km/h
Sensor: Nr:Datum:Temp:Abs-Feuchte:Windchill:Wind:
Aussen-T/F 26 02-10-2010 05:04:05 11 C 9.21 g/m*3 11 C 0 km/h
27 02-10-2010 05:16:05 11 C 9.31 g/m*3 11 C 0 km/h
28 02-10-2010 05:28:05 11 C 9.31 g/m*3 11 C 0 km/h
29 02-10-2010 05:40:05 10.9 C 9.35 g/m*3 10.9 C 0 km/h
30 02-10-2010 05:52:05 11 C 9.31 g/m*3 11 C 0 km/h
31 02-10-2010 06:04:06 11 C 9.31 g/m*3 11 C 0 km/h
32 02-10-2010 06:16:06 11 C 9.41 g/m*3 11 C 0 km/h
33 02-10-2010 06:28:06 11 C 9.41 g/m*3 11 C 0 km/h
34 02-10-2010 06:40:06 11 C 9.41 g/m*3 11 C 0 km/h
35 02-10-2010 06:52:06 11 C 9.41 g/m*3 11 C 0 km/h
36 02-10-2010 07:04:06 11 C 9.41 g/m*3 11 C 0 km/h
37 02-10-2010 07:16:06 11.1 C 9.47 g/m*3 11.1 C 0 km/h
38 02-10-2010 07:28:06 11.2 C 9.63 g/m*3 11.2 C 0 km/h
39 02-10-2010 07:40:03 11.2 C 9.63 g/m*3 11.2 C 0 km/h
40 02-10-2010 07:52:02 11.2 C 9.63 g/m*3 11.2 C 0 km/h
41 02-10-2010 08:04:02 11.3 C 9.69 g/m*3 11.3 C 0 km/h
42 02-10-2010 08:16:03 11.3 C 9.69 g/m*3 11.3 C 0 km/h
43 02-10-2010 08:28:03 11.4 C 9.75 g/m*3 11.4 C 0 km/h
44 02-10-2010 08:40:02 11.5 C 9.81 g/m*3 11.5 C 0 km/h
45 02-10-2010 08:52:02 11.8 C 10 g/m*3 11.8 C 0 km/h
46 02-10-2010 09:04:02 11.8 C 10 g/m*3 11.8 C 0 km/h
47 02-10-2010 09:16:02 11.8 C 10 g/m*3 11.8 C 0 km/h
48 02-10-2010 09:28:02 12 C 10.12 g/m*3 12 C 0 km/h
49 02-10-2010 09:40:02 12.1 C 10.19 g/m*3 12.1 C 0 km/h
50 02-10-2010 09:52:02 12.3 C 10.32 g/m*3 12.3 C 0 km/h
Sensor: Nr:Datum:Temp:Abs-Feuchte:Windchill:Wind:
Aussen-T/F 51 02-10-2010 10:04:02 12.6 C 10.51 g/m*3 12.6 C 0 km/h
52 02-10-2010 10:16:02 13 C 10.66 g/m*3 13 C 0 km/h
53 02-10-2010 10:28:02 13 C 10.66 g/m*3 13 C 0 km/h
54 02-10-2010 10:40:01 13.3 C 10.86 g/m*3 13.3 C 0 km/h
55 02-10-2010 10:52:02 13.8 C 11.08 g/m*3 13.8 C 0 km/h
56 02-10-2010 11:04:01 14 C 11.1 g/m*3 14 C 0 km/h
57 02-10-2010 11:16:01 14.4 C 11.37 g/m*3 14.4 C 0 km/h
58 02-10-2010 11:28:01 14.4 C 11.37 g/m*3 14.4 C 0 km/h
59 02-10-2010 11:40:02 14.4 C 11.25 g/m*3 14.4 C 0 km/h
60 02-10-2010 11:52:02 14.4 C 11.25 g/m*3 14.4 C 0 km/h
61 02-10-2010 12:04:02 14.5 C 11.32 g/m*3 14.5 C 0 km/h
62 02-10-2010 12:16:02 14.7 C 11.46 g/m*3 14.7 C 0 km/h
63 02-10-2010 12:28:02 15.2 C 11.68 g/m*3 15.2 C 0 km/h
64 02-10-2010 12:40:02 15.4 C 11.69 g/m*3 15.4 C 0 km/h
65 02-10-2010 12:52:02 15.4 C 11.43 g/m*3 15.4 C 0 km/h
66 02-10-2010 13:04:02 15.5 C 11.5 g/m*3 15.5 C 0 km/h
67 02-10-2010 13:16:02 15.6 C 11.57 g/m*3 15.6 C 0 km/h
68 02-10-2010 13:28:02 15.7 C 11.64 g/m*3 15.7 C 0 km/h
69 02-10-2010 13:40:02 15.9 C 11.65 g/m*3 15.9 C 0 km/h
70 02-10-2010 13:52:01 16 C 11.31 g/m*3 16 C 0 km/h
71 02-10-2010 14:04:01 15.7 C 11.24 g/m*3 15.7 C 0 km/h
72 02-10-2010 14:16:02 15.4 C 11.17 g/m*3 15.4 C 0 km/h
73 02-10-2010 14:28:02 15.4 C 11.3 g/m*3 15.4 C 0 km/h
74 02-10-2010 14:40:01 15.7 C 11.64 g/m*3 15.7 C 0 km/h
75 02-10-2010 14:52:03 16 C 11.72 g/m*3 16 C 0 km/h
Sensor: Nr:Datum:Temp:Abs-Feuchte:Windchill:Wind:
Aussen-T/F 76 02-10-2010 15:04:02 15.8 C 11.71 g/m*3 15.8 C 0 km/h
77 02-10-2010 15:16:02 15.9 C 11.65 g/m*3 15.9 C 0 km/h
78 02-10-2010 15:28:02 16 C 11.44 g/m*3 16 C 0 km/h
79 02-10-2010 15:40:02 16.2 C 11.31 g/m*3 16.2 C 0 km/h
80 02-10-2010 15:52:02 16.1 C 11.24 g/m*3 16.1 C 0 km/h
81 02-10-2010 16:04:02 16.2 C 11.31 g/m*3 16.2 C 0 km/h
82 02-10-2010 16:16:02 16.1 C 10.97 g/m*3 16.1 C 0 km/h
83 02-10-2010 16:28:02 16.2 C 11.03 g/m*3 16.2 C 0 km/h
84 02-10-2010 16:40:02 16.4 C 11.17 g/m*3 16.4 C 0 km/h
85 02-10-2010 16:52:02 16.3 C 10.96 g/m*3 16.3 C 0 km/h
86 02-10-2010 17:04:01 16.4 C 11.03 g/m*3 16.4 C 0 km/h
87 02-10-2010 17:16:01 16.3 C 10.82 g/m*3 16.3 C 0 km/h
88 02-10-2010 17:28:01 16.3 C 10.96 g/m*3 16.3 C 0 km/h
89 02-10-2010 17:40:02 16.3 C 10.96 g/m*3 16.3 C 0 km/h
90 02-10-2010 17:52:02 16.1 C 10.83 g/m*3 16.1 C 0 km/h
91 02-10-2010 18:04:02 15.9 C 10.97 g/m*3 15.9 C 0 km/h
92 02-10-2010 18:16:02 15.6 C 10.91 g/m*3 15.6 C 0 km/h
93 02-10-2010 18:28:02 15.3 C 10.84 g/m*3 15.3 C 0 km/h
94 02-10-2010 18:40:02 15.2 C 10.9 g/m*3 15.2 C 0 km/h
95 02-10-2010 18:52:02 15.1 C 10.97 g/m*3 15.1 C 0 km/h
96 02-10-2010 19:04:02 15 C 10.9 g/m*3 15 C 0 km/h
97 02-10-2010 19:16:02 15 C 10.9 g/m*3 15 C 0 km/h
98 02-10-2010 19:28:02 15 C 10.9 g/m*3 15 C 0 km/h
99 02-10-2010 19:40:02 14.9 C 10.96 g/m*3 14.9 C 0 km/h
100 02-10-2010 19:52:01 14.8 C 11.02 g/m*3 14.8 C 0 km/h
Sensor: Nr:Datum:Temp:Abs-Feuchte:Windchill:Wind:
Aussen-T/F 101 02-10-2010 20:04:01 14.8 C 11.02 g/m*3 14.8 C 0 km/h
102 02-10-2010 20:16:02 14.9 C 11.22 g/m*3 14.9 C 0 km/h
103 02-10-2010 20:28:02 14.9 C 11.22 g/m*3 14.9 C 0 km/h
104 02-10-2010 20:40:01 14.8 C 11.02 g/m*3 14.8 C 0 km/h
105 02-10-2010 20:52:01 14.6 C 11.01 g/m*3 14.6 C 0 km/h
106 02-10-2010 21:04:01 14.6 C 11.01 g/m*3 14.6 C 0 km/h
107 02-10-2010 21:16:02 14.5 C 10.94 g/m*3 14.5 C 0 km/h
108 02-10-2010 21:28:02 14.5 C 11.07 g/m*3 14.5 C 0 km/h
109 02-10-2010 21:40:01 14.5 C 11.07 g/m*3 14.5 C 0 km/h
110 02-10-2010 21:53:02 14.4 C 11 g/m*3 14.4 C 0 km/h
111 02-10-2010 22:05:02 14.4 C 11 g/m*3 14.4 C 0 km/h
112 02-10-2010 22:17:02 14.4 C 11.13 g/m*3 14.4 C 0 km/h
113 02-10-2010 22:29:02 14.4 C 11.13 g/m*3 14.4 C 0 km/h
114 02-10-2010 22:41:02 14.5 C 11.19 g/m*3 14.5 C 0 km/h
115 02-10-2010 22:53:02 14.7 C 11.33 g/m*3 14.7 C 0 km/h
116 02-10-2010 23:05:02 14.7 C 11.33 g/m*3 14.7 C 0 km/h
117 02-10-2010 23:17:02 14.6 C 11.14 g/m*3 14.6 C 0 km/h
118 02-10-2010 23:29:03 14.5 C 11.07 g/m*3 14.5 C 0 km/h
119 02-10-2010 23:41:03 14.5 C 11.07 g/m*3 14.5 C 0 km/h
120 02-10-2010 23:53:03 14.5 C 11.07 g/m*3 14.5 C 0 km/h

Legende:
   Min
   Max


Maximal/Minimal-Werte vom 23.02.2003 - 03.10.2020

Sensor Min Max Avg
Temp
(Aussen-T/F)
-16.4 °C
20-12-2009  01:30:01
40.4 °C
25-07-2019  16:20:00
11.32 °C

Die Daten stammen von einer Davis Vantage Pro 2 Wetter-Station und werden unter Linux mit der Software wview2wettercgi und aufbereitet. Alle Angaben erfolgen ohne Gewähr für ihre Vollständigkeit oder Richtigkeit.
Kontakt: Rainer Krienke krienke@uni-koblenz.de . Meine Webseiten an der Uni Koblenz oder privat.
Version: $Revision: 0.78 $